Time;durP1;ratioP1;P1;durP2;ratioP2;P2;SDS_P1;SDS_P2;PMS_P1;PMS_P2;Temp;Humidity;BMP_temperature;BMP_pressure;BME280_temperature;BME280_humidity;BME280_pressure;Samples;Min_cycle;Max_cycle;Signal;HPM_P1;HPM_P2
2023/11/01 00:02:17;;;;;;;5.60;1.20;;;13.40;1.00;;;;;;5036095;28;20397;-82
2023/11/01 00:04:43;;;;;;;3.00;1.07;;;13.70;1.00;;;;;;5034770;28;20454;-84
2023/11/01 00:07:08;;;;;;;2.83;0.60;;;13.10;1.00;;;;;;5038647;28;20394;-82
2023/11/01 00:09:34;;;;;;;3.20;0.93;;;13.30;1.00;;;;;;5037021;28;20447;-84
2023/11/01 00:12:00;;;;;;;1.27;0.60;;;13.20;1.00;;;;;;5033410;28;20410;-83
2023/11/01 00:14:26;;;;;;;3.40;1.50;;;12.90;1.00;;;;;;5034413;28;20418;-83
2023/11/01 00:16:52;;;;;;;1.30;0.70;;;13.20;1.00;;;;;;5057541;28;20411;-84
2023/11/01 00:19:17;;;;;;;4.47;0.80;;;12.90;1.00;;;;;;5051876;28;20741;-84
2023/11/01 00:21:43;;;;;;;2.00;0.90;;;13.20;1.00;;;;;;5050377;28;20879;-84
2023/11/01 00:24:09;;;;;;;2.00;0.80;;;12.60;1.00;;;;;;5052004;28;20412;-83
2023/11/01 00:26:34;;;;;;;1.40;0.60;;;13.20;1.00;;;;;;5042588;28;20486;-83
2023/11/01 00:29:00;;;;;;;2.72;0.90;;;13.40;1.00;;;;;;5046681;28;20425;-83
2023/11/01 00:31:25;;;;;;;2.15;0.63;;;13.30;1.00;;;;;;5045540;28;20423;-84
2023/11/01 00:33:51;;;;;;;1.43;0.60;;;13.40;1.00;;;;;;5046665;28;20768;-83
2023/11/01 00:36:17;;;;;;;1.23;0.50;;;13.50;1.00;;;;;;5044233;28;20482;-83
2023/11/01 00:38:42;;;;;;;2.90;0.80;;;13.30;1.00;;;;;;5045185;28;20391;-82
2023/11/01 00:41:08;;;;;;;1.52;0.70;;;13.50;1.00;;;;;;5048268;28;20409;-83
2023/11/01 00:43:33;;;;;;;2.77;1.00;;;13.20;1.00;;;;;;5043942;28;20457;-84
2023/11/01 00:45:59;;;;;;;2.90;0.80;;;12.30;1.00;;;;;;5046069;28;20775;-84
2023/11/01 00:48:25;;;;;;;2.23;0.60;;;13.70;1.00;;;;;;5050308;28;20406;-83
2023/11/01 00:50:51;;;;;;;2.35;0.70;;;13.70;1.00;;;;;;5057004;28;20414;-83
2023/11/01 00:53:16;;;;;;;3.63;0.90;;;13.60;1.00;;;;;;5059506;28;20385;-83
2023/11/01 00:55:42;;;;;;;4.30;0.80;;;13.50;1.00;;;;;;5055715;28;20874;-83
2023/11/01 00:58:07;;;;;;;1.25;0.70;;;13.60;1.00;;;;;;5049772;28;20409;-84
2023/11/01 01:00:33;;;;;;;2.10;0.63;;;13.60;1.00;;;;;;5049778;28;20434;-83
2023/11/01 01:02:58;;;;;;;2.30;0.70;;;14.30;1.00;;;;;;5052493;28;20446;-83
2023/11/01 01:05:24;;;;;;;1.20;0.52;;;12.90;1.00;;;;;;5055278;28;20404;-83
2023/11/01 01:07:49;;;;;;;3.47;0.80;;;12.80;1.00;;;;;;5057122;28;20819;-83
2023/11/01 01:10:16;;;;;;;1.33;0.70;;;12.90;1.00;;;;;;5047546;28;20387;-83
2023/11/01 01:12:41;;;;;;;2.55;0.73;;;12.70;1.00;;;;;;5046742;28;20383;-83
2023/11/01 01:15:07;;;;;;;1.43;0.70;;;12.30;1.00;;;;;;5042728;28;20462;-83
2023/11/01 01:17:32;;;;;;;1.27;0.77;;;12.40;1.00;;;;;;5043429;28;20403;-83
2023/11/01 01:19:58;;;;;;;1.83;0.80;;;11.90;1.00;;;;;;5043304;28;20399;-83
2023/11/01 01:22:24;;;;;;;3.90;0.73;;;13.40;1.00;;;;;;5043423;28;20500;-83
2023/11/01 01:24:50;;;;;;;1.93;0.87;;;11.80;1.00;;;;;;5041468;28;20487;-83
2023/11/01 01:27:15;;;;;;;3.28;1.00;;;11.80;1.00;;;;;;5040247;28;20518;-83
2023/11/01 01:29:41;;;;;;;2.50;0.98;;;11.60;1.00;;;;;;5038044;28;20399;-82
2023/11/01 01:32:07;;;;;;;2.20;1.10;;;11.40;1.00;;;;;;5036990;28;20394;-82
2023/11/01 01:34:32;;;;;;;3.17;1.00;;;11.10;1.00;;;;;;5053063;28;20931;-82
2023/11/01 01:36:58;;;;;;;2.50;0.77;;;11.50;1.00;;;;;;5038910;28;20402;-82
2023/11/01 01:39:23;;;;;;;3.10;0.80;;;11.20;1.00;;;;;;5041599;28;20397;-82
2023/11/01 01:41:49;;;;;;;2.53;1.00;;;11.20;1.00;;;;;;5039107;28;20403;-82
2023/11/01 01:44:14;;;;;;;1.40;0.60;;;11.30;1.00;;;;;;5037769;28;20436;-83
2023/11/01 01:46:41;;;;;;;1.90;1.00;;;11.00;1.00;;;;;;5038978;28;20449;-83
2023/11/01 01:49:07;;;;;;;2.10;0.80;;;10.90;1.00;;;;;;5043789;28;20387;-82
2023/11/01 01:51:34;;;;;;;2.30;0.90;;;10.90;1.00;;;;;;5038228;28;20403;-83
2023/11/01 01:54:00;;;;;;;0.95;0.65;;;10.90;1.00;;;;;;5037452;28;20399;-82
2023/11/01 01:56:27;;;;;;;2.80;0.80;;;10.80;1.00;;;;;;5038119;28;20398;-83
2023/11/01 01:58:53;;;;;;;2.13;0.80;;;11.80;1.00;;;;;;5038433;28;20418;-82
2023/11/01 02:01:19;;;;;;;3.80;0.97;;;10.70;1.00;;;;;;5039478;28;20387;-81
2023/11/01 02:03:45;;;;;;;2.50;0.80;;;10.70;1.00;;;;;;5040088;28;20411;-82
2023/11/01 02:06:11;;;;;;;2.80;0.80;;;10.30;1.00;;;;;;5051029;28;21009;-83
2023/11/01 02:08:37;;;;;;;4.50;0.90;;;10.70;1.00;;;;;;5043197;28;20383;-83
2023/11/01 02:11:03;;;;;;;3.92;1.40;;;10.50;1.00;;;;;;5044305;28;20395;-82
2023/11/01 02:13:29;;;;;;;1.67;1.23;;;10.60;1.00;;;;;;5043375;28;20391;-82
2023/11/01 02:15:54;;;;;;;3.20;1.00;;;10.30;1.00;;;;;;5043422;28;20383;-82
2023/11/01 02:18:20;;;;;;;2.90;0.70;;;10.40;1.00;;;;;;5047717;28;20409;-82
2023/11/01 02:20:47;;;;;;;1.95;0.70;;;10.40;1.00;;;;;;5047028;28;20410;-82
2023/11/01 02:23:16;;;;;;;1.60;0.70;;;10.30;1.00;;;;;;5044281;28;20410;-82
2023/11/01 02:25:43;;;;;;;1.52;0.90;;;10.40;1.00;;;;;;5042630;28;20822;-82
2023/11/01 02:28:10;;;;;;;2.60;1.05;;;10.40;1.00;;;;;;5049019;28;20402;-82
2023/11/01 02:30:37;;;;;;;4.20;1.30;;;10.30;1.00;;;;;;5041794;28;20403;-82
2023/11/01 02:33:03;;;;;;;4.00;0.90;;;10.00;1.00;;;;;;5053247;28;20399;-81
2023/11/01 02:35:28;;;;;;;2.20;0.90;;;10.20;1.00;;;;;;5074475;28;20393;-82
2023/11/01 02:37:54;;;;;;;3.10;1.00;;;10.30;1.00;;;;;;5070234;28;20392;-83
2023/11/01 02:40:19;;;;;;;4.15;0.85;;;9.90;1.00;;;;;;5044521;28;20407;-82
2023/11/01 02:42:51;;;;;;;1.10;0.70;;;10.10;1.00;;;;;;5041818;28;20411;-83
2023/11/01 02:45:16;;;;;;;1.55;0.80;;;10.10;1.00;;;;;;5043527;28;20390;-82
2023/11/01 02:47:43;;;;;;;2.80;0.90;;;9.90;1.00;;;;;;5042291;28;20390;-83
2023/11/01 02:50:12;;;;;;;3.28;1.20;;;9.40;1.00;;;;;;5039266;28;20414;-83
2023/11/01 02:52:38;;;;;;;1.90;0.90;;;10.00;1.00;;;;;;5041963;28;20379;-82
2023/11/01 02:55:08;;;;;;;2.35;0.95;;;10.10;1.00;;;;;;5037613;28;20391;-83
2023/11/01 02:57:34;;;;;;;1.97;1.10;;;10.00;1.00;;;;;;5046482;28;20517;-83
2023/11/01 03:00:00;;;;;;;2.38;1.00;;;9.60;1.00;;;;;;5043045;28;20415;-83
2023/11/01 03:02:26;;;;;;;4.78;1.02;;;9.50;1.00;;;;;;5045060;28;20383;-83
2023/11/01 03:04:52;;;;;;;2.80;0.90;;;9.90;1.00;;;;;;5046725;28;20464;-83
2023/11/01 03:07:18;;;;;;;2.47;0.82;;;9.90;1.00;;;;;;5043329;28;20387;-83
2023/11/01 03:09:44;;;;;;;3.35;1.02;;;9.80;1.00;;;;;;5044508;28;20391;-83
2023/11/01 03:12:09;;;;;;;3.90;1.00;;;9.70;1.00;;;;;;5044248;28;20441;-83
2023/11/01 03:14:38;;;;;;;2.63;1.00;;;9.70;1.00;;;;;;5042498;28;20406;-83
2023/11/01 03:17:08;;;;;;;2.47;0.90;;;9.70;1.00;;;;;;5022389;28;20401;-83
2023/11/01 03:19:34;;;;;;;2.42;1.05;;;9.50;1.00;;;;;;5036453;28;20493;-82
2023/11/01 03:21:59;;;;;;;4.10;1.00;;;9.30;1.00;;;;;;5043291;28;20398;-83
2023/11/01 03:24:25;;;;;;;2.13;0.80;;;9.50;1.00;;;;;;5040396;28;20779;-83
2023/11/01 03:26:51;;;;;;;4.00;1.20;;;9.60;1.00;;;;;;5041237;28;20447;-83
2023/11/01 03:29:19;;;;;;;3.30;1.10;;;9.50;1.00;;;;;;5040386;28;20391;-83
2023/11/01 03:31:44;;;;;;;1.90;0.90;;;9.40;1.00;;;;;;5040951;28;20399;-83
2023/11/01 03:34:11;;;;;;;3.57;1.00;;;9.20;1.00;;;;;;5039444;28;20396;-83
2023/11/01 03:36:37;;;;;;;2.92;1.00;;;9.60;1.00;;;;;;5039947;28;20410;-83
2023/11/01 03:39:04;;;;;;;2.50;0.90;;;9.40;1.00;;;;;;5041198;28;20379;-83
2023/11/01 03:41:29;;;;;;;2.83;0.90;;;9.50;1.00;;;;;;5040202;28;20465;-82
2023/11/01 03:43:55;;;;;;;4.10;1.20;;;9.50;1.00;;;;;;5040529;28;20954;-83
2023/11/01 03:46:20;;;;;;;2.30;0.97;;;9.40;1.00;;;;;;5039578;28;20767;-82
2023/11/01 03:48:49;;;;;;;2.13;0.80;;;9.60;1.00;;;;;;5039303;28;20394;-83
2023/11/01 03:51:14;;;;;;;2.72;1.10;;;9.40;1.00;;;;;;5040324;28;20430;-83
2023/11/01 03:53:40;;;;;;;1.20;1.00;;;9.30;1.00;;;;;;5039002;28;20518;-83
2023/11/01 03:56:06;;;;;;;4.47;1.10;;;9.30;1.00;;;;;;5041289;28;20403;-83
2023/11/01 03:58:31;;;;;;;3.77;1.20;;;9.30;1.00;;;;;;5041209;28;20947;-83
2023/11/01 04:00:57;;;;;;;2.30;0.90;;;9.20;1.00;;;;;;5041296;28;20478;-83
2023/11/01 04:03:23;;;;;;;1.60;0.70;;;9.20;1.00;;;;;;5041120;28;20479;-83
2023/11/01 04:05:49;;;;;;;3.00;1.10;;;9.30;1.00;;;;;;5039959;28;20462;-82
2023/11/01 04:08:14;;;;;;;3.53;0.93;;;9.20;1.00;;;;;;5041074;28;20437;-83
2023/11/01 04:10:40;;;;;;;1.60;0.90;;;9.10;1.00;;;;;;5041860;28;20426;-82
2023/11/01 04:13:06;;;;;;;3.50;1.00;;;9.00;1.00;;;;;;5041381;28;20393;-82
2023/11/01 04:15:32;;;;;;;3.20;0.90;;;9.10;1.00;;;;;;5052853;28;20387;-82
2023/11/01 04:17:57;;;;;;;5.53;1.10;;;9.30;1.00;;;;;;5054879;28;20417;-82
2023/11/01 04:20:23;;;;;;;1.35;0.80;;;9.10;1.00;;;;;;5055182;28;20399;-82
2023/11/01 04:22:49;;;;;;;2.45;0.75;;;9.30;1.00;;;;;;5055936;28;20407;-81
2023/11/01 04:25:15;;;;;;;2.10;1.00;;;9.30;1.00;;;;;;5040042;28;20403;-82
2023/11/01 04:27:41;;;;;;;5.27;1.20;;;9.30;1.00;;;;;;5056563;28;20438;-82
2023/11/01 04:30:08;;;;;;;2.38;0.75;;;9.10;1.00;;;;;;5054034;28;20447;-82
2023/11/01 04:32:36;;;;;;;1.70;0.83;;;9.30;1.00;;;;;;5042734;28;20514;-82
2023/11/01 04:35:03;;;;;;;2.90;1.17;;;9.30;1.00;;;;;;5041209;28;20411;-82
2023/11/01 04:37:29;;;;;;;2.42;1.15;;;9.00;1.00;;;;;;5036696;28;20393;-82
2023/11/01 04:39:56;;;;;;;2.45;1.00;;;8.30;1.00;;;;;;5046525;28;20467;-82
2023/11/01 04:42:22;;;;;;;2.53;1.10;;;9.30;1.00;;;;;;5050948;28;20429;-83
2023/11/01 04:44:48;;;;;;;2.42;0.93;;;9.10;1.00;;;;;;5029077;28;20409;-83
2023/11/01 04:47:14;;;;;;;1.73;0.90;;;9.00;1.00;;;;;;5029672;28;20385;-82
2023/11/01 04:49:40;;;;;;;2.70;1.00;;;9.20;1.00;;;;;;5036545;28;20389;-81
2023/11/01 04:52:08;;;;;;;1.90;1.00;;;9.40;1.00;;;;;;5043743;28;20438;-81
2023/11/01 04:54:34;;;;;;;1.58;0.82;;;9.20;1.00;;;;;;5056344;28;20409;-82
2023/11/01 04:57:01;;;;;;;2.00;1.00;;;9.00;1.00;;;;;;5045758;28;20391;-82
2023/11/01 04:59:30;;;;;;;3.60;1.50;;;9.00;1.00;;;;;;5043568;28;20395;-83
2023/11/01 05:01:56;;;;;;;1.73;0.90;;;8.90;1.00;;;;;;5041881;28;20391;-83
2023/11/01 05:04:22;;;;;;;1.70;0.95;;;8.70;1.00;;;;;;5042690;28;20486;-82
2023/11/01 05:06:47;;;;;;;1.73;1.10;;;8.60;1.00;;;;;;5042909;28;20413;-83
2023/11/01 05:09:13;;;;;;;2.10;1.10;;;8.70;1.00;;;;;;5040128;28;20395;-83
2023/11/01 05:11:39;;;;;;;2.60;1.05;;;8.60;1.00;;;;;;5041771;28;20383;-81
2023/11/01 05:14:05;;;;;;;3.90;1.30;;;8.50;1.00;;;;;;5040561;28;20445;-83
2023/11/01 05:16:30;;;;;;;1.60;1.10;;;8.70;1.00;;;;;;5040572;28;20387;-82
2023/11/01 05:18:56;;;;;;;2.57;1.20;;;8.60;1.00;;;;;;5045984;28;20394;-82
2023/11/01 05:21:21;;;;;;;3.00;1.13;;;8.30;1.00;;;;;;5055088;28;20414;-82
2023/11/01 05:23:47;;;;;;;2.23;1.00;;;8.50;1.00;;;;;;5040073;28;20414;-84
2023/11/01 05:26:14;;;;;;;3.65;1.20;;;8.40;1.00;;;;;;5031695;28;20778;-84
2023/11/01 05:28:40;;;;;;;4.00;1.30;;;8.20;1.00;;;;;;5023694;28;20746;-82
2023/11/01 05:31:06;;;;;;;2.10;0.90;;;8.40;1.00;;;;;;5012873;28;20447;-84
2023/11/01 05:33:31;;;;;;;2.05;1.00;;;8.60;1.00;;;;;;5012256;28;20940;-84
2023/11/01 05:35:57;;;;;;;1.85;1.25;;;8.60;1.00;;;;;;5013082;28;20392;-84
2023/11/01 05:38:25;;;;;;;1.88;1.33;;;8.20;1.00;;;;;;5011742;28;20917;-84
2023/11/01 05:40:51;;;;;;;1.80;1.30;;;8.40;1.00;;;;;;5011297;28;20392;-83
2023/11/01 05:43:16;;;;;;;3.70;1.20;;;8.30;1.00;;;;;;5023082;28;20422;-84
2023/11/01 05:45:42;;;;;;;2.13;1.10;;;8.40;1.00;;;;;;5032631;28;20402;-84
2023/11/01 05:48:07;;;;;;;2.10;0.90;;;8.40;1.00;;;;;;5030275;28;20943;-83
2023/11/01 05:50:34;;;;;;;1.10;0.88;;;8.20;1.00;;;;;;5031198;28;20418;-87
2023/11/01 05:53:02;;;;;;;1.80;1.00;;;8.50;1.00;;;;;;5030849;28;20942;-86
2023/11/01 05:55:28;;;;;;;3.80;1.20;;;8.50;1.00;;;;;;5031929;28;20478;-87
2023/11/01 05:57:53;;;;;;;2.72;0.80;;;8.30;1.00;;;;;;5028109;28;20429;-87
2023/11/01 06:00:19;;;;;;;4.68;0.98;;;8.40;1.00;;;;;;5011228;28;20411;-86
2023/11/01 06:02:45;;;;;;;3.35;1.10;;;8.40;1.00;;;;;;5011105;28;20906;-87
2023/11/01 06:05:11;;;;;;;3.00;1.30;;;8.40;1.00;;;;;;5012200;28;20391;-87
2023/11/01 06:07:36;;;;;;;2.40;0.97;;;8.10;1.00;;;;;;5011151;28;20968;-87
2023/11/01 06:10:02;;;;;;;3.53;1.17;;;8.40;1.00;;;;;;5012459;28;20895;-87
2023/11/01 06:12:27;;;;;;;1.70;1.00;;;8.40;1.00;;;;;;5012413;28;20955;-87
2023/11/01 06:14:53;;;;;;;2.00;1.20;;;8.40;1.00;;;;;;5017475;28;20756;-86
2023/11/01 06:17:20;;;;;;;1.80;1.00;;;8.20;1.00;;;;;;5015659;28;20397;-86
2023/11/01 06:19:46;;;;;;;2.10;0.90;;;8.10;1.00;;;;;;5012243;28;20400;-86
2023/11/01 06:22:11;;;;;;;2.88;0.90;;;8.30;1.00;;;;;;5012292;28;20387;-86
2023/11/01 06:24:37;;;;;;;2.20;1.00;;;8.40;1.00;;;;;;5010983;28;20408;-86
2023/11/01 06:27:05;;;;;;;1.10;0.90;;;8.40;1.00;;;;;;5013411;28;20403;-87
2023/11/01 06:29:31;;;;;;;2.40;0.90;;;8.30;1.00;;;;;;5019188;28;20385;-86
2023/11/01 06:31:56;;;;;;;2.97;1.00;;;9.30;1.00;;;;;;5012805;28;20765;-86
2023/11/01 06:34:21;;;;;;;1.27;0.93;;;7.70;1.00;;;;;;5013561;28;20759;-87
2023/11/01 06:36:47;;;;;;;1.83;1.30;;;8.30;1.00;;;;;;5031715;28;20390;-87
2023/11/01 06:39:13;;;;;;;1.67;1.00;;;8.30;1.00;;;;;;5031955;28;20390;-86
2023/11/01 06:41:38;;;;;;;2.90;1.00;;;8.20;1.00;;;;;;5033101;28;20762;-86
2023/11/01 06:44:08;;;;;;;2.10;0.90;;;8.20;1.00;;;;;;5035584;28;20926;-85
2023/11/01 06:46:34;;;;;;;2.60;1.27;;;8.60;1.00;;;;;;5025947;28;20410;-86
2023/11/01 06:48:59;;;;;;;2.57;1.00;;;8.30;1.00;;;;;;5038164;28;20470;-86
2023/11/01 06:51:25;;;;;;;3.73;1.20;;;7.90;1.00;;;;;;5037947;28;20402;-86
2023/11/01 06:53:51;;;;;;;1.70;1.40;;;8.40;1.00;;;;;;5037498;28;20398;-86
2023/11/01 06:56:16;;;;;;;1.50;1.40;;;8.30;1.00;;;;;;5047811;28;20740;-85
2023/11/01 06:58:43;;;;;;;4.33;1.40;;;8.00;1.00;;;;;;5037952;28;20721;-85
2023/11/01 07:01:10;;;;;;;2.33;1.10;;;8.50;1.00;;;;;;5035723;28;20411;-83
2023/11/01 07:03:36;;;;;;;4.50;1.20;;;8.30;1.00;;;;;;5038106;28;20403;-85
2023/11/01 07:06:01;;;;;;;1.50;1.40;;;8.60;1.00;;;;;;5037357;28;20759;-86
2023/11/01 07:08:27;;;;;;;2.83;0.80;;;8.70;1.00;;;;;;5039114;28;20426;-85
2023/11/01 07:10:53;;;;;;;1.23;0.90;;;8.20;1.00;;;;;;5043705;28;20397;-86
2023/11/01 07:13:18;;;;;;;4.07;1.50;;;8.70;1.00;;;;;;5042623;28;20460;-85
2023/11/01 07:15:44;;;;;;;2.30;1.10;;;8.80;1.00;;;;;;5033849;28;20755;-86
2023/11/01 07:18:11;;;;;;;1.83;1.20;;;8.90;1.00;;;;;;5049995;28;20464;-86
2023/11/01 07:20:38;;;;;;;2.60;1.30;;;8.90;7.80;;;;;;5048613;28;20387;-86
2023/11/01 07:23:04;;;;;;;2.67;1.30;;;8.90;13.10;;;;;;5042527;28;20447;-87
2023/11/01 07:25:29;;;;;;;3.65;1.20;;;8.80;22.30;;;;;;5054800;28;20393;-86
2023/11/01 07:27:55;;;;;;;2.08;1.38;;;8.10;1.10;;;;;;5036848;28;20387;-86
2023/11/01 07:30:21;;;;;;;1.80;1.10;;;8.70;1.00;;;;;;5044609;28;20419;-86
2023/11/01 07:32:47;;;;;;;2.90;1.20;;;8.70;1.00;;;;;;5040989;28;20925;-85
2023/11/01 07:35:12;;;;;;;2.50;1.48;;;9.20;1.00;;;;;;5043991;28;20387;-85
2023/11/01 07:37:38;;;;;;;3.00;1.50;;;9.10;1.00;;;;;;5036506;28;20454;-85
2023/11/01 07:40:05;;;;;;;1.60;1.50;;;8.80;1.00;;;;;;5038897;28;20386;-85
2023/11/01 07:42:30;;;;;;;4.78;1.50;;;9.40;1.00;;;;;;5036923;28;20437;-85
2023/11/01 07:44:56;;;;;;;6.30;1.30;;;9.30;1.00;;;;;;5027203;28;20399;-85
2023/11/01 07:47:21;;;;;;;1.80;1.00;;;9.00;1.00;;;;;;5031394;28;20398;-85
2023/11/01 07:49:49;;;;;;;1.20;1.00;;;9.60;1.00;;;;;;5048000;28;20767;-86
2023/11/01 07:52:15;;;;;;;2.08;1.00;;;9.50;1.00;;;;;;5044022;28;20398;-86
2023/11/01 07:54:41;;;;;;;2.87;1.17;;;9.70;1.00;;;;;;5037657;28;20906;-86
2023/11/01 07:57:06;;;;;;;5.80;1.10;;;9.80;1.00;;;;;;5062957;28;20424;-87
2023/11/01 07:59:32;;;;;;;2.47;1.20;;;9.30;1.00;;;;;;5060761;28;20406;-85
2023/11/01 08:01:57;;;;;;;1.50;0.90;;;9.90;1.00;;;;;;5071287;28;20470;-86
2023/11/01 08:04:23;;;;;;;3.78;1.60;;;9.80;1.00;;;;;;5061224;28;20419;-88
2023/11/01 08:06:49;;;;;;;2.78;1.20;;;10.10;1.00;;;;;;5065825;28;20390;-82
2023/11/01 08:09:15;;;;;;;2.90;1.10;;;10.20;1.00;;;;;;5064889;28;20402;-87
2023/11/01 08:11:40;;;;;;;1.70;1.30;;;10.60;1.00;;;;;;5070301;28;20394;-89
2023/11/01 08:14:07;;;;;;;1.30;1.10;;;10.40;1.00;;;;;;5072201;28;20391;-87
2023/11/01 08:16:33;;;;;;;2.50;1.20;;;10.50;48.00;;;;;;5055408;28;20378;-85
2023/11/01 08:18:59;;;;;;;1.65;1.20;;;10.50;1.00;;;;;;5036816;28;20410;-86
2023/11/01 08:21:24;;;;;;;2.75;1.20;;;10.30;1.00;;;;;;5049434;28;20377;-87
2023/11/01 08:23:50;;;;;;;2.20;1.00;;;10.80;1.00;;;;;;5035477;28;20406;-86
2023/11/01 08:26:19;;;;;;;1.38;1.00;;;10.70;1.00;;;;;;5031859;28;20401;-87
2023/11/01 08:28:45;;;;;;;2.30;1.00;;;10.60;1.00;;;;;;5036718;28;21760;-86
2023/11/01 08:31:12;;;;;;;1.45;1.00;;;10.70;1.00;;;;;;5034729;28;20395;-86
2023/11/01 08:33:39;;;;;;;1.30;0.90;;;11.30;1.00;;;;;;5042046;28;20385;-87
2023/11/01 08:36:05;;;;;;;1.40;0.90;;;11.40;1.00;;;;;;5040452;28;20942;-86
2023/11/01 08:38:31;;;;;;;2.80;1.00;;;11.50;1.00;;;;;;5032949;28;20387;-87
2023/11/01 08:40:57;;;;;;;0.80;0.80;;;11.20;1.00;;;;;;5033399;28;20399;-88
2023/11/01 08:43:22;;;;;;;1.30;1.20;;;11.50;1.00;;;;;;5037450;28;20513;-87
2023/11/01 08:45:48;;;;;;;1.35;0.90;;;12.80;1.00;;;;;;5050698;28;21134;-87
2023/11/01 08:48:16;;;;;;;2.00;0.90;;;11.70;1.00;;;;;;5044372;28;20405;-87
2023/11/01 08:50:41;;;;;;;2.30;1.00;;;11.80;1.00;;;;;;5033241;28;20495;-87
2023/11/01 08:53:07;;;;;;;1.40;0.80;;;11.00;1.00;;;;;;5032730;28;20464;-87
2023/11/01 08:55:33;;;;;;;2.20;1.20;;;11.70;1.00;;;;;;5035397;28;20389;-87
2023/11/01 08:57:59;;;;;;;2.38;1.20;;;12.10;1.00;;;;;;5031285;28;20985;-87
2023/11/01 09:00:24;;;;;;;2.55;1.20;;;12.10;1.00;;;;;;5023895;28;20399;-87
2023/11/01 09:02:50;;;;;;;1.58;1.00;;;11.70;6.50;;;;;;5021693;28;20391;-87
2023/11/01 09:05:16;;;;;;;2.70;1.40;;;12.30;8.00;;;;;;5021873;28;20431;-87
2023/11/01 09:07:44;;;;;;;1.60;1.17;;;12.30;1.00;;;;;;5020622;28;20425;-87
2023/11/01 09:10:13;;;;;;;1.20;0.88;;;12.50;10.20;;;;;;5025669;28;20396;-88
2023/11/01 09:12:38;;;;;;;1.20;1.00;;;12.60;4.20;;;;;;5042765;28;20454;-87
2023/11/01 09:15:05;;;;;;;1.52;0.90;;;12.30;2.50;;;;;;5042078;28;20410;-87
2023/11/01 09:17:30;;;;;;;1.70;0.93;;;12.80;7.00;;;;;;5039498;28;20379;-88
2023/11/01 09:19:56;;;;;;;1.38;0.80;;;12.80;11.40;;;;;;5035147;28;20386;-87
2023/11/01 09:22:22;;;;;;;1.85;0.80;;;12.70;15.50;;;;;;5022866;28;20381;-87
2023/11/01 09:24:47;;;;;;;1.50;0.95;;;13.00;14.30;;;;;;5020814;28;20934;-87
2023/11/01 09:27:15;;;;;;;1.60;0.80;;;13.00;10.50;;;;;;5023834;28;20394;-87
2023/11/01 09:29:41;;;;;;;1.70;1.00;;;13.00;17.50;;;;;;5037536;28;20405;-87
2023/11/01 09:32:07;;;;;;;1.00;0.90;;;13.20;51.50;;;;;;5028951;28;20470;-87
2023/11/01 09:34:32;;;;;;;2.23;1.40;;;13.40;40.70;;;;;;5031466;28;20383;-87
2023/11/01 09:36:58;;;;;;;1.40;1.10;;;13.50;9.20;;;;;;5032032;28;20899;-87
2023/11/01 09:39:24;;;;;;;2.97;1.00;;;13.20;12.20;;;;;;5026669;28;20427;-88
2023/11/01 09:41:55;;;;;;;1.00;0.90;;;13.80;1.00;;;;;;5031129;28;20459;-87
2023/11/01 09:44:20;;;;;;;1.10;1.00;;;13.40;1.90;;;;;;5019014;28;20397;-87
2023/11/01 09:46:49;;;;;;;1.13;0.85;;;13.50;3.90;;;;;;5023727;28;20389;-87
2023/11/01 09:49:16;;;;;;;1.77;1.00;;;13.80;1.00;;;;;;5028348;28;20387;-87
2023/11/01 09:51:43;;;;;;;2.58;0.90;;;13.80;5.40;;;;;;5026187;28;20384;-87
2023/11/01 09:54:09;;;;;;;1.98;0.90;;;14.00;1.00;;;;;;5017491;28;20431;-87
2023/11/01 09:56:56;;;;;;;1.77;1.00;;;15.20;1.00;;;;;;5020815;28;20409;-86
2023/11/01 09:59:22;;;;;;;1.77;0.90;;;14.10;1.00;;;;;;5016387;28;20567;-87
2023/11/01 10:01:48;;;;;;;1.00;0.70;;;14.20;1.00;;;;;;5015602;28;20396;-87
2023/11/01 10:04:14;;;;;;;1.43;0.90;;;15.80;1.00;;;;;;5035181;28;20410;-87
2023/11/01 10:06:43;;;;;;;1.42;0.80;;;14.20;1.00;;;;;;5031090;28;20764;-88
2023/11/01 10:09:09;;;;;;;1.43;1.00;;;14.80;1.00;;;;;;5041026;28;20393;-87
2023/11/01 10:11:34;;;;;;;3.63;1.30;;;14.80;1.00;;;;;;5047708;28;20441;-88
2023/11/01 10:14:00;;;;;;;2.30;0.90;;;14.80;1.00;;;;;;5054142;28;20470;-88
2023/11/01 10:16:26;;;;;;;1.50;0.90;;;15.00;1.00;;;;;;5053010;28;20379;-89
2023/11/01 10:18:52;;;;;;;1.10;0.90;;;15.30;1.00;;;;;;5045847;28;20433;-88
2023/11/01 10:21:18;;;;;;;1.77;1.00;;;14.80;1.00;;;;;;5043945;28;20772;-88
2023/11/01 10:23:43;;;;;;;1.05;0.68;;;15.40;1.00;;;;;;5023390;28;20431;-86
2023/11/01 10:26:12;;;;;;;1.40;0.83;;;15.50;1.00;;;;;;5042178;28;20436;-88
2023/11/01 10:28:41;;;;;;;1.52;0.80;;;15.60;1.00;;;;;;5053854;28;20391;-90
2023/11/01 10:31:07;;;;;;;0.80;0.70;;;15.50;1.00;;;;;;5059435;28;20451;-88
2023/11/01 10:33:35;;;;;;;1.53;0.70;;;15.40;1.00;;;;;;5051922;28;20394;-87
2023/11/01 10:36:03;;;;;;;2.00;0.90;;;17.50;1.00;;;;;;5047723;28;20390;-87
2023/11/01 10:38:30;;;;;;;2.00;0.90;;;15.90;1.00;;;;;;5060239;28;20502;-88
2023/11/01 10:41:03;;;;;;;2.03;0.73;;;15.90;1.00;;;;;;5060306;28;20387;-88
2023/11/01 10:43:30;;;;;;;1.52;0.82;;;16.00;1.00;;;;;;5075378;28;20423;-89
2023/11/01 10:46:02;;;;;;;1.60;0.70;;;17.50;1.00;;;;;;5057225;28;20387;-88
2023/11/01 10:48:28;;;;;;;2.50;0.80;;;16.10;1.00;;;;;;5046011;28;20398;-85
2023/11/01 10:50:57;;;;;;;2.30;1.00;;;15.90;1.00;;;;;;5035263;28;20405;-85
2023/11/01 10:53:23;;;;;;;1.50;0.80;;;16.00;1.00;;;;;;5053666;28;20614;-85
2023/11/01 10:55:53;;;;;;;3.20;1.30;;;15.60;1.00;;;;;;5049025;28;20426;-86
2023/11/01 10:58:27;;;;;;;1.88;0.60;;;15.40;1.00;;;;;;5039960;28;20805;-86
2023/11/01 11:01:02;;;;;;;1.13;0.50;;;15.90;1.00;;;;;;5044314;28;20394;-85
2023/11/01 11:03:58;;;;;;;1.45;0.65;;;16.10;1.00;;;;;;5052906;28;20905;-86
2023/11/01 11:06:38;;;;;;;1.13;0.70;;;16.40;1.00;;;;;;5037848;28;20414;-85
2023/11/01 11:09:24;;;;;;;1.17;0.73;;;16.20;1.00;;;;;;5038943;28;20399;-87
2023/11/01 11:12:24;;;;;;;1.90;0.70;;;16.30;1.00;;;;;;5037157;28;20395;-86
2023/11/01 11:14:51;;;;;;;1.00;0.55;;;16.40;1.00;;;;;;5036500;28;20473;-86
2023/11/01 11:17:18;;;;;;;0.73;0.40;;;15.70;1.00;;;;;;5037346;28;20403;-86
2023/11/01 11:20:05;;;;;;;0.80;0.60;;;16.60;1.00;;;;;;5036423;28;20819;-85
2023/11/01 11:23:02;;;;;;;0.70;0.50;;;17.40;1.00;;;;;;5032790;28;20383;-86
2023/11/01 11:25:37;;;;;;;1.20;0.50;;;17.70;1.00;;;;;;5036714;28;20425;-86
2023/11/01 11:28:05;;;;;;;0.50;0.30;;;18.10;1.00;;;;;;5025999;28;20926;-86
2023/11/01 11:31:05;;;;;;;1.80;0.60;;;17.70;1.00;;;;;;5036633;28;20875;-86
2023/11/01 11:33:37;;;;;;;0.68;0.50;;;17.90;1.00;;;;;;5027960;28;20387;-86
2023/11/01 11:36:12;;;;;;;0.57;0.40;;;18.30;1.00;;;;;;5027591;28;20399;-86
2023/11/01 11:38:46;;;;;;;1.10;0.60;;;18.50;1.00;;;;;;5025511;28;20392;-85
2023/11/01 11:41:25;;;;;;;4.00;0.77;;;19.00;1.00;;;;;;5029721;28;20502;-86
2023/11/01 11:44:12;;;;;;;0.60;0.50;;;18.60;1.00;;;;;;5036469;28;20411;-88
2023/11/01 11:46:40;;;;;;;1.00;0.50;;;18.60;1.00;;;;;;5045238;28;20398;-88
2023/11/01 11:49:23;;;;;;;0.80;0.50;;;18.00;1.00;;;;;;5022888;28;20407;-87
2023/11/01 11:52:02;;;;;;;1.00;0.50;;;18.10;1.00;;;;;;5018703;28;20411;-89
2023/11/01 11:54:32;;;;;;;1.10;0.40;;;18.80;1.00;;;;;;5022211;28;20388;-87
2023/11/01 11:56:59;;;;;;;1.20;0.50;;;19.50;1.00;;;;;;5024518;28;20500;-86
2023/11/01 11:59:26;;;;;;;1.90;0.60;;;19.50;1.00;;;;;;5017014;28;20404;-85
2023/11/01 12:02:04;;;;;;;1.00;0.40;;;19.40;1.00;;;;;;5025629;28;20395;-86
2023/11/01 12:04:31;;;;;;;0.75;0.45;;;21.40;1.00;;;;;;5028802;28;20411;-87
2023/11/01 12:06:57;;;;;;;1.20;0.50;;;21.00;1.00;;;;;;5023051;28;20397;-86
2023/11/01 12:09:25;;;;;;;1.87;0.40;;;20.70;1.00;;;;;;5024921;28;20441;-86
2023/11/01 12:11:52;;;;;;;1.60;0.60;;;21.70;1.00;;;;;;5022967;28;20401;-84
2023/11/01 12:14:31;;;;;;;1.60;0.50;;;19.60;1.00;;;;;;5028995;28;20402;-86
2023/11/01 12:19:27;;;;;;;0.90;0.40;;;20.30;1.00;;;;;;5032833;28;20419;-86
2023/11/01 12:22:00;;;;;;;1.50;0.60;;;21.80;1.00;;;;;;5034594;28;20387;-88
2023/11/01 12:24:36;;;;;;;0.70;0.50;;;20.60;1.00;;;;;;5036694;28;20413;-88
2023/11/01 12:27:05;;;;;;;1.80;0.80;;;19.60;1.00;;;;;;5038579;28;20450;-87
2023/11/01 12:29:47;;;;;;;0.77;0.40;;;19.60;1.00;;;;;;5034951;28;20445;-88
2023/11/01 12:32:18;;;;;;;0.60;0.40;;;19.20;1.00;;;;;;5032646;28;20398;-88
2023/11/01 12:34:49;;;;;;;2.13;0.70;;;19.30;1.00;;;;;;5048364;28;20407;-88
2023/11/01 12:37:16;;;;;;;1.10;0.50;;;19.00;1.00;;;;;;5031944;28;20469;-87
2023/11/01 12:40:00;;;;;;;0.90;0.50;;;19.30;1.00;;;;;;5031422;28;20388;-87
2023/11/01 12:42:28;;;;;;;1.10;0.55;;;17.40;1.00;;;;;;5031604;28;20465;-88
2023/11/01 12:44:55;;;;;;;1.05;0.40;;;18.30;1.00;;;;;;5026058;28;20419;-87
2023/11/01 12:47:21;;;;;;;0.60;0.40;;;17.50;1.00;;;;;;5030315;28;20409;-87
2023/11/01 12:49:50;;;;;;;0.70;0.40;;;17.20;1.00;;;;;;5032983;28;20441;-87
2023/11/01 12:52:16;;;;;;;2.20;0.60;;;17.30;1.00;;;;;;5032599;28;20405;-88
2023/11/01 12:54:45;;;;;;;1.83;0.50;;;18.20;1.00;;;;;;5033868;28;20391;-87
2023/11/01 12:57:11;;;;;;;2.10;0.40;;;19.90;1.00;;;;;;5033137;28;20395;-88
2023/11/01 12:59:37;;;;;;;0.80;0.40;;;17.60;1.00;;;;;;5032669;28;20383;-88
2023/11/01 13:02:04;;;;;;;0.60;0.40;;;18.70;1.00;;;;;;5032527;28;20663;-88
2023/11/01 13:04:30;;;;;;;0.85;0.57;;;18.40;1.00;;;;;;5031680;28;20469;-88